Latest Weather Observations for Essendon Airport

IDV60801

Issued at 8:35 pm EST Wednesday 27 August 2014 (issued every 30 minutes, with the page automatically refreshed every 10 minutes)

About weather observations | Map of weather stations | Latest weather observations for VIC | Other Formats
Station Details ID: 086038 Name: ESSENDON AIRPORT Lat: -37.73 Lon: 144.91 Height: 78.4 m
Data from the previous 72 hours. | See also: Recent months at Essendon Airport
Date/Time
EST
Temp
°C
App
Temp
°C
Dew
Point
Rel
Hum
%
Delta-T
°C
Wind Press
QNH
hPa
Press
MSL
hPa
Rain
since 9 am
mm
Dir
 
Spd
km/h
Gust
km/h
Spd
kts
Gust
kts
27/08:30pm 9.9 7.8 9.6 98 0.1 WSW 11 13 6 7 1028.7 1028.8 0.0
27/08:00pm 9.7 7.5 9.4 98 0.1 SW 11 15 6 8 1028.3 1028.5 0.0
27/07:37pm 9.9 6.9 9.4 97 0.2 SW 15 20 8 11 1028.1 1028.3 0.0
27/07:32pm 9.9 7.3 9.4 97 0.2 SSW 13 20 7 11 1028.1 1028.3 0.0
27/07:30pm 9.8 7.2 9.2 96 0.3 SSW 13 17 7 9 1028.1 1028.3 0.0
27/07:24pm 9.1 7.0 8.3 95 0.4 SSW 9 13 5 7 1027.9 1028.1 0.0
27/07:11pm 9.7 8.1 8.8 94 0.4 S 7 9 4 5 1027.8 1028.0 0.0
27/07:09pm 10.0 8.5 9.2 95 0.4 S 7 9 4 5 1027.7 1027.9 0.0
27/07:04pm 10.1 8.6 9.2 94 0.4 SSW 7 11 4 6 1027.6 1027.8 0.0
27/07:00pm 10.1 8.2 9.2 94 0.4 SSW 9 13 5 7 1027.6 1027.8 0.0
27/06:46pm 10.8 8.3 9.7 93 0.6 S 13 15 7 8 1027.6 1027.8 0.0
27/06:30pm 11.4 9.0 10.0 91 0.7 S 13 17 7 9 1027.5 1027.7 0.0
27/06:00pm 12.4 9.2 9.8 84 1.3 S 17 20 9 11 1027.4 1027.6 0.0
27/05:30pm 15.0 11.7 8.0 63 3.5 S 15 17 8 9 1027.1 1027.3 0.0
27/05:00pm 16.4 12.9 7.3 55 4.5 S 15 19 8 10 1027.0 1027.2 0.0
27/04:30pm 17.2 13.6 6.7 50 5.2 S 15 20 8 11 1026.9 1027.1 0.0
27/04:00pm 17.7 14.6 7.2 50 5.2 S 13 17 7 9 1026.8 1027.0 0.0
27/03:30pm 17.7 13.8 7.2 50 5.3 S 17 20 9 11 1026.7 1026.9 0.0
27/03:00pm 18.0 14.2 7.4 50 5.3 S 17 22 9 12 1026.7 1026.9 0.0
27/02:30pm 18.2 14.7 8.7 54 4.9 S 17 22 9 12 1026.7 1026.9 0.0
27/02:00pm 18.6 15.4 8.3 51 5.3 S 15 22 8 12 1026.8 1027.0 0.0
27/01:30pm 17.9 15.2 9.0 56 4.6 S 13 17 7 9 1026.9 1027.1 0.0
27/01:00pm 18.2 15.8 10.1 59 4.3 SSW 13 20 7 11 1027.1 1027.3 0.0
27/12:30pm 18.2 15.9 10.3 60 4.2 SSW 13 19 7 10 1027.4 1027.6 0.0
27/12:00pm 18.0 16.2 10.9 63 3.8 SW 11 19 6 10 1027.6 1027.8 0.0
27/11:30am 17.2 15.7 10.6 65 3.5 SSW 9 13 5 7 1027.9 1028.1 0.0
27/11:00am 15.7 14.1 8.9 64 3.5 SW 7 13 4 7 1028.3 1028.5 0.0
27/10:30am 15.1 13.7 8.8 66 3.2 SSW 6 9 3 5 1028.3 1028.5 0.0
27/10:00am 14.9 14.8 9.3 69 2.9 CALM 0 4 0 2 1028.5 1028.6 0.0
27/09:30am 13.0 11.4 8.7 75 2.2 NNE 7 9 4 5 1028.0 1028.2 0.0
27/09:00am 12.2 12.3 10.1 87 1.1 NNW 0 0 0 0 1028.1 1028.3 0.0
27/08:30am 10.0 8.8 9.4 96 0.3 NW 6 7 3 4 1028.0 1028.2 0.0
27/08:00am 7.7 7.1 7.6 99 0.0 CALM 0 0 0 0 1027.9 1028.1 0.0
27/07:36am 5.6 3.4 5.3 98 0.1 SE 6 7 3 4 1027.8 1028.0 0.0
27/07:30am 6.0 3.9 5.7 98 0.1 SE 6 7 3 4 1027.7 1027.9 0.0
27/07:00am 3.9 2.5 3.6 98 0.1 CALM 0 2 0 1 1027.3 1027.5 0.0
27/06:50am 4.2 1.7 3.9 98 0.1 NNW 6 7 3 4 1027.2 1027.4 0.0
27/06:40am 4.8 1.9 4.5 98 0.1 N 9 9 5 5 1027.0 1027.2 0.0
27/06:30am 5.5 3.3 5.2 98 0.1 N 6 9 3 5 1026.9 1027.1 0.0
27/06:26am 4.6 2.2 4.3 98 0.1 N 6 7 3 4 1026.9 1027.1 0.0
27/06:00am 5.7 3.5 5.4 98 0.1 N 6 9 3 5 1026.8 1027.0 0.0
27/05:45am 4.9 2.6 4.6 98 0.1 NNW 6 9 3 5 1026.7 1026.9 0.0
27/05:30am 4.4 3.1 4.1 98 0.1 NW 0 0 0 0 1026.8 1027.0 0.0
27/05:12am 4.9 3.7 4.6 98 0.1 CALM 0 6 0 3 1026.8 1027.0 0.0
27/05:00am 4.8 2.3 4.5 98 0.1 N 7 9 4 5 1026.7 1026.9 0.0
27/04:30am 5.5 2.7 5.2 98 0.1 WNW 9 11 5 6 1026.5 1026.7 0.0
27/04:26am 5.5 2.7 5.2 98 0.1 WNW 9 11 5 6 1026.5 1026.7 0.0
27/04:00am 5.2 2.7 4.9 98 0.1 SE 7 11 4 6 1026.4 1026.6 0.0
27/03:30am 5.8 3.5 5.5 98 0.1 NE 7 9 4 5 1026.1 1026.3 0.0
27/03:00am 6.4 5.5 6.1 98 0.1 CALM 0 6 0 3 1026.2 1026.4 0.0
27/02:46am 6.6 5.4 6.3 98 0.1 W 2 6 1 3 1026.3 1026.5 0.0
27/02:30am 7.2 5.2 6.9 98 0.1 WNW 7 7 4 4 1026.3 1026.5 0.0
27/02:00am 6.6 3.7 6.3 98 0.1 N 11 13 6 7 1026.2 1026.4 0.0
27/01:50am 7.4 4.6 7.1 98 0.1 N 11 13 6 7 1026.1 1026.3 0.0
27/01:30am 7.3 4.9 7.0 98 0.1 N 9 11 5 6 1026.2 1026.4 0.0
27/01:00am 8.0 5.8 7.7 98 0.1 N 9 11 5 6 1026.2 1026.4 0.0
27/12:30am 7.9 5.6 7.6 98 0.1 N 9 11 5 6 1026.2 1026.4 0.0
27/12:00am 8.7 6.2 8.4 98 0.1 N 11 11 6 6 1026.3 1026.5 0.0
 
Date/Time
EST
Temp
°C
App
Temp
°C
Dew
Point
Rel
Hum
%
Delta-T
°C
Wind Press
QNH
hPa
Press
MSL
hPa
Rain
since 9 am
mm
Dir
 
Spd
km/h
Gust
km/h
Spd
kts
Gust
kts
26/11:30pm 9.4 7.9 9.1 98 0.1 NNW 7 9 4 5 1026.4 1026.6 0.0
26/11:00pm 9.6 6.9 9.1 97 0.2 WNW 13 15 7 8 1026.3 1026.5 0.0
26/10:58pm 9.7 7.5 9.2 97 0.2 WNW 11 15 6 8 1026.3 1026.5 0.0
26/10:30pm 9.7 7.5 9.2 97 0.2 NW 11 13 6 7 1026.5 1026.7 0.0
26/10:06pm 9.7 8.2 9.1 96 0.3 NNW 7 11 4 6 1026.4 1026.6 0.0
26/10:00pm 10.3 8.6 9.7 96 0.3 NNW 9 11 5 6 1026.4 1026.6 0.0
26/09:52pm 10.4 8.7 9.8 96 0.3 WNW 9 11 5 6 1026.4 1026.6 0.0
26/09:30pm 9.8 7.9 9.0 95 0.4 NW 9 11 5 6 1026.4 1026.6 0.0
26/09:00pm 10.8 8.8 10.0 95 0.4 WNW 11 15 6 8 1026.4 1026.6 0.0
26/08:30pm 11.1 8.7 10.0 93 0.6 W 13 15 7 8 1026.2 1026.4 0.0
26/08:00pm 11.2 9.1 9.6 90 0.8 W 11 13 6 7 1026.1 1026.3 0.0
26/07:30pm 12.1 10.5 10.2 88 1.0 W 9 11 5 6 1026.0 1026.2 0.0
26/07:00pm 12.3 11.0 9.9 85 1.2 SW 7 9 4 5 1026.0 1026.2 0.0
26/06:30pm 12.3 10.8 9.3 82 1.5 SSW 7 11 4 6 1025.7 1025.9 0.0
26/06:00pm 13.3 10.9 9.9 80 1.7 S 13 17 7 9 1025.5 1025.7 0.0
26/05:30pm 14.2 11.0 9.8 75 2.3 S 17 19 9 10 1025.4 1025.6 0.0
26/05:00pm 15.2 12.0 10.0 71 2.7 S 17 20 9 11 1025.2 1025.4 0.0
26/04:30pm 17.2 15.1 9.6 61 4.0 S 11 20 6 11 1025.0 1025.2 0.0
26/04:00pm 17.6 15.8 9.5 59 4.2 SSW 9 17 5 9 1025.1 1025.3 0.0
26/03:30pm 17.7 15.8 9.1 57 4.5 SSW 9 13 5 7 1025.1 1025.3 0.0
26/03:00pm 17.6 15.7 9.0 57 4.5 SSW 9 15 5 8 1025.2 1025.4 0.0
26/02:30pm 17.3 15.5 9.5 60 4.1 SSW 9 15 5 8 1025.4 1025.6 0.0
26/02:00pm 17.1 15.6 9.0 59 4.2 SSW 7 11 4 6 1025.6 1025.8 0.0
26/01:30pm 16.2 14.6 8.9 62 3.8 SE 7 13 4 7 1025.9 1026.1 0.0
26/01:00pm 16.0 14.1 9.2 64 3.5 SSW 9 15 5 8 1026.3 1026.5 0.0
26/12:30pm 15.7 14.8 9.4 66 3.3 W 4 9 2 5 1026.7 1026.9 0.0
26/12:00pm 15.0 13.7 9.1 68 3.0 NNW 6 9 3 5 1027.1 1027.3 0.0
26/11:30am 13.6 12.2 8.9 73 2.4 S 6 9 3 5 1027.4 1027.6 0.0
26/11:00am 13.1 11.9 9.7 80 1.7 SSW 6 7 3 4 1027.8 1028.0 0.0
26/10:51am 12.7 12.7 9.9 83 1.4 CALM 0 9 0 5 1027.9 1028.1 0.0
26/10:30am 12.0 10.8 10.2 89 0.9 W 7 11 4 6 1027.9 1028.1 0.0
26/10:00am 11.4 10.3 10.8 96 0.3 WNW 7 11 4 6 1028.2 1028.4 0.0
26/09:30am 10.1 8.8 9.9 99 0.1 W 7 9 4 5 1028.2 1028.4 0.0
26/09:00am 9.6 8.4 9.5 99 0.0 NNW 6 7 3 4 1028.3 1028.5 0.8
26/08:39am 9.4 8.1 9.3 99 0.0 NW 6 9 3 5 1028.3 1028.5 0.8
26/08:30am 9.2 7.9 9.1 99 0.0 NNW 6 9 3 5 1028.3 1028.5 0.8
26/08:00am 9.0 7.4 8.9 99 0.0 N 7 9 4 5 1028.2 1028.4 0.8
26/07:30am 8.8 8.1 8.7 99 0.0 WNW 2 6 1 3 1028.0 1028.2 0.8
26/07:00am 8.7 7.2 8.6 99 0.0 WNW 6 7 3 4 1027.8 1028.0 0.8
26/06:30am 8.7 7.1 8.6 99 0.0 WSW 7 9 4 5 1027.7 1027.9 0.8
26/06:00am 8.4 6.7 8.3 99 0.0 W 7 9 4 5 1027.3 1027.5 0.8
26/05:30am 8.2 5.7 8.1 99 0.0 WNW 11 13 6 7 1027.1 1027.3 0.8
26/05:25am 8.1 5.6 8.0 99 0.0 WNW 11 13 6 7 1027.2 1027.4 0.8
26/05:00am 7.0 4.6 6.9 99 0.0 NW 9 11 5 6 1027.1 1027.3 0.8
26/04:38am 6.3 4.1 6.0 98 0.1 NNW 7 9 4 5 1027.1 1027.3 0.8
26/04:30am 6.4 3.8 6.1 98 0.1 NNW 9 11 5 6 1027.1 1027.3 0.8
26/04:00am 7.0 4.9 6.7 98 0.1 W 7 9 4 5 1027.1 1027.3 0.8
26/03:43am 5.9 3.2 5.6 98 0.1 W 9 13 5 7 1027.2 1027.4 0.8
26/03:30am 6.5 3.5 6.2 98 0.1 WSW 11 13 6 7 1027.3 1027.5 0.8
26/03:20am 6.2 3.6 5.9 98 0.1 SW 9 11 5 6 1027.3 1027.5 0.8
26/03:19am 6.2 3.6 5.9 98 0.1 SW 9 11 5 6 1027.3 1027.5 0.8
26/03:17am 7.0 4.9 6.7 98 0.1 SW 7 9 4 5 1027.3 1027.5 0.8
26/03:00am 6.7 4.2 6.4 98 0.1 SSW 9 11 5 6 1027.4 1027.6 0.8
26/02:52am 7.0 4.5 6.7 98 0.1 SSW 9 9 5 5 1027.5 1027.7 0.8
26/02:30am 7.3 5.4 6.9 97 0.2 SW 6 9 3 5 1027.7 1027.9 0.8
26/02:22am 7.5 5.5 7.1 97 0.2 S 7 9 4 5 1027.8 1028.0 0.8
26/02:00am 8.4 6.2 8.0 97 0.2 S 9 13 5 7 1028.0 1028.2 0.6
26/01:30am 8.5 6.0 8.1 97 0.2 SSW 11 15 6 8 1028.1 1028.3 0.6
26/01:00am 8.0 5.7 7.6 97 0.2 SSW 9 11 5 6 1028.1 1028.3 0.6
26/12:30am 9.0 6.2 8.5 97 0.2 S 13 17 7 9 1028.1 1028.3 0.6
26/12:04am 9.2 5.7 8.9 98 0.1 SSW 17 20 9 11 1028.1 1028.3 0.6
26/12:00am 9.2 5.7 8.9 98 0.1 SSW 17 20 9 11 1028.0 1028.2 0.6
 
Date/Time
EST
Temp
°C
App
Temp
°C
Dew
Point
Rel
Hum
%
Delta-T
°C
Wind Press
QNH
hPa
Press
MSL
hPa
Rain
since 9 am
mm
Dir
 
Spd
km/h
Gust
km/h
Spd
kts
Gust
kts
25/11:47pm 8.0 5.0 7.6 97 0.2 SW 13 15 7 8 1028.1 1028.3 0.6
25/11:30pm 8.3 5.7 7.9 97 0.2 SW 11 15 6 8 1028.1 1028.3 0.6
25/11:00pm 9.0 5.4 8.5 97 0.2 SW 17 19 9 10 1028.2 1028.4 0.6
25/10:30pm 8.1 5.7 7.2 94 0.4 SW 9 11 5 6 1028.2 1028.4 0.6
25/10:00pm 9.2 6.2 7.8 91 0.7 SSW 13 17 7 9 1028.3 1028.5 0.6
25/09:30pm 10.1 8.2 9.0 93 0.5 SSW 9 17 5 9 1028.5 1028.6 0.6
25/09:00pm 10.2 7.9 9.0 92 0.6 SSW 11 13 6 7 1028.5 1028.6 0.6
25/08:30pm 10.8 8.3 9.6 92 0.6 S 13 17 7 9 1028.3 1028.5 0.6
25/08:00pm 10.9 7.9 9.3 90 0.8 S 15 20 8 11 1028.0 1028.2 0.6
25/07:30pm 11.3 8.0 9.4 88 1.0 S 17 24 9 13 1027.9 1028.1 0.6
25/07:00pm 11.9 8.2 9.5 85 1.2 S 19 28 10 15 1027.8 1028.0 0.6
25/06:30pm 12.4 8.2 9.6 83 1.4 S 22 28 12 15 1027.4 1027.6 0.6
25/06:00pm 12.9 9.0 9.5 80 1.7 S 20 28 11 15 1027.0 1027.2 0.6
25/05:30pm 12.9 9.0 9.5 80 1.7 S 20 32 11 17 1026.5 1026.7 0.6
25/05:00pm 13.3 8.7 9.5 78 1.9 S 24 32 13 17 1026.3 1026.5 0.6
25/04:30pm 13.6 9.0 9.8 78 2.0 S 24 32 13 17 1026.1 1026.3 0.6
25/04:00pm 14.2 10.8 10.4 78 2.0 S 19 28 10 15 1025.9 1026.1 0.6
25/03:30pm 13.7 9.5 9.7 77 2.1 S 22 32 12 17 1025.9 1026.1 0.6
25/03:00pm 13.3 9.1 9.7 79 1.8 S 22 30 12 16 1025.8 1026.0 0.6
25/02:30pm 13.4 9.7 10.2 81 1.7 S 20 28 11 15 1025.9 1026.1 0.6
25/02:00pm 12.9 9.3 10.6 86 1.2 S 20 32 11 17 1025.9 1026.1 0.6
25/01:30pm 15.0 13.0 10.2 73 2.5 SSE 11 19 6 10 1025.7 1025.9 0.6
25/01:00pm 14.1 12.8 11.3 83 1.5 SSE 9 15 5 8 1026.0 1026.2 0.6
25/12:30pm 12.6 10.5 11.3 92 0.7 SE 13 17 7 9 1026.3 1026.5 0.6
25/12:18pm 12.3 10.7 11.4 94 0.5 SE 11 15 6 8 1026.3 1026.5 0.6
25/12:00pm 11.6 9.3 10.3 92 0.7 ESE 13 19 7 10 1026.5 1026.7 0.4
25/11:52am 12.2 10.3 10.6 90 0.8 SE 11 15 6 8 1026.5 1026.7 0.0
25/11:30am 12.4 9.7 10.5 88 1.0 SSE 15 17 8 9 1026.6 1026.8 0.0
25/11:00am 13.3 11.6 9.9 80 1.7 SSE 9 13 5 7 1026.5 1026.7 0.0
25/10:30am 12.8 11.6 10.2 84 1.3 SSW 7 9 4 5 1026.4 1026.6 0.0
25/10:00am 12.1 10.4 10.0 87 1.1 WSW 9 13 5 7 1026.4 1026.6 0.0
25/09:45am 12.3 10.3 10.0 86 1.2 WSW 11 15 6 8 1026.3 1026.5 0.0
25/09:30am 12.4 10.9 10.5 88 1.0 W 9 13 5 7 1026.2 1026.4 0.0
25/09:00am 11.4 8.5 9.8 90 0.8 W 15 19 8 10 1026.1 1026.3 1.4
25/08:30am 11.1 7.9 9.9 92 0.6 W 17 20 9 11 1026.0 1026.2 1.4
25/08:00am 10.7 7.5 9.8 94 0.5 W 17 22 9 12 1025.7 1025.9 1.4
25/07:56am 10.6 7.0 9.7 94 0.5 W 19 22 10 12 1025.6 1025.8 1.4
25/07:30am 10.4 7.1 9.6 95 0.4 W 17 24 9 13 1025.3 1025.5 1.4
25/07:04am 10.2 8.0 9.4 95 0.4 W 11 13 6 7 1025.2 1025.4 1.4
25/07:00am 10.2 8.0 9.4 95 0.4 WNW 11 13 6 7 1025.2 1025.4 1.4
25/06:30am 10.0 7.0 9.2 95 0.4 W 15 20 8 11 1024.8 1024.9 1.4
25/06:11am 9.9 7.2 9.1 95 0.4 W 13 15 7 8 1024.6 1024.7 1.4
25/06:03am 10.0 7.4 9.2 95 0.4 W 13 19 7 10 1024.5 1024.6 1.4
25/06:00am 10.0 7.4 9.2 95 0.4 W 13 19 7 10 1024.4 1024.5 1.4
25/05:31am 10.3 6.9 9.1 92 0.6 W 17 20 9 11 1024.3 1024.4 1.0
25/05:30am 10.3 6.9 9.1 92 0.6 W 17 20 9 11 1024.3 1024.4 1.0
25/05:27am 10.4 7.0 9.0 91 0.7 W 17 24 9 13 1024.3 1024.4 0.6
25/05:00am 10.5 7.0 8.9 90 0.8 W 17 20 9 11 1024.0 1024.1 0.4
25/04:30am 10.6 6.5 8.7 88 0.9 W 20 28 11 15 1024.0 1024.1 0.4
25/04:00am 10.6 6.7 8.5 87 1.0 WNW 19 28 10 15 1024.0 1024.1 0.2
25/03:30am 10.6 7.0 8.4 86 1.1 WNW 17 20 9 11 1024.0 1024.1 0.2
25/03:00am 10.4 6.4 8.2 86 1.1 WNW 19 24 10 13 1024.2 1024.3 0.2
25/02:30am 10.6 6.4 8.4 86 1.1 WNW 20 26 11 14 1024.4 1024.5 0.2
25/02:00am 10.1 6.0 7.9 86 1.1 WNW 19 24 10 13 1024.6 1024.7 0.2
25/01:30am 10.6 6.0 8.0 84 1.3 WNW 22 32 12 17 1025.0 1025.2 0.2
25/01:00am 10.8 6.3 8.6 86 1.1 WNW 22 33 12 18 1025.1 1025.3 0.2
25/12:30am 10.8 5.8 8.2 84 1.3 WNW 24 30 13 16 1025.1 1025.3 0.2
25/12:00am 10.7 6.5 8.3 85 1.2 WNW 20 30 11 16 1025.4 1025.6 0.2
 
Date/Time
EST
Temp
°C
App
Temp
°C
Dew
Point
Rel
Hum
%
Delta-T
°C
Wind Press
QNH
hPa
Press
MSL
hPa
Rain
since 9 am
mm
Dir
 
Spd
km/h
Gust
km/h
Spd
kts
Gust
kts
24/11:30pm 11.0 6.4 8.0 82 1.5 WNW 22 30 12 16 1025.5 1025.7 0.2
24/11:00pm 10.8 6.5 8.0 83 1.4 NW 20 28 11 15 1025.6 1025.8 0.2
24/10:30pm 11.0 6.3 7.9 81 1.5 WNW 22 28 12 15 1025.9 1026.1 0.0
24/10:00pm 11.7 6.5 7.2 74 2.2 WNW 24 33 13 18 1026.0 1026.2 0.0
24/09:30pm 11.9 7.0 7.0 72 2.4 WNW 22 28 12 15 1026.1 1026.3 0.0
24/09:00pm 12.1 7.2 7.0 71 2.4 NW 22 32 12 17 1026.1 1026.3 0.0

Other Formats:

Comma delimited format used in spreadsheet applications
http://www.bom.gov.au/fwo/IDV60801/IDV60801.95866.axf

JavaScript Object Notation format (JSON) in row-major order
http://www.bom.gov.au/fwo/IDV60801/IDV60801.95866.json